This is the latest recevied weather packets stored in our database for station/object OE-11399. If no packets are shown the sender has not sent any weather packets the latest 10 day(s).
| Time | Temp. | Humidity | Pressure | Rain* | Wind** | Luminosity | Snow |
|---|---|---|---|---|---|---|---|
| 1787861500 | 18.89° C | 82% | 855.2 hPa | 0 mm | - | 0 W/m² | - |
| 1787861127 | 19.44° C | 81% | 854.9 hPa | 0 mm | - | 0 W/m² | - |
| 1787860527 | 19.44° C | 80% | 854.9 hPa | 0 mm | - | 0 W/m² | - |
| 1787859700 | 20° C | 79% | 854.8 hPa | 0 mm | - | 0 W/m² | - |
| 1787859327 | 20° C | 79% | 854.9 hPa | 0 mm | - | 0 W/m² | - |
| 1787858727 | 20.56° C | 77% | 855 hPa | 0 mm | - | 0 W/m² | - |
| 1787857900 | 21.11° C | 75% | 855 hPa | 0 mm | - | 0 W/m² | - |
| 1787857527 | 21.11° C | 75% | 855 hPa | 0 mm | - | 0 W/m² | - |
| 1787856927 | 21.67° C | 73% | 854.9 hPa | 0 mm | - | 0 W/m² | - |
| 1787856100 | 22.22° C | 71% | 854.9 hPa | 0 mm | - | 0 W/m² | - |
| 1787855726 | 22.78° C | 70% | 854.8 hPa | 0 mm | - | 0 W/m² | - |
| 1787855127 | 22.78° C | 69% | 854.6 hPa | 0 mm | - | 0 W/m² | - |
| 1787854300 | 23.89° C | 65% | 854.7 hPa | 0 mm | - | 0 W/m² | - |
| 1787853927 | 23.89° C | 62% | 854.7 hPa | 0 mm | - | 0 W/m² | - |
| 1787852739 | 24.44° C | 59% | 854.6 hPa | 0 mm | - | 15 W/m² | - |
| 1787852126 | 24.44° C | 60% | 854.5 hPa | 0 mm | - | 29 W/m² | - |
| 1787851527 | 24.44° C | 61% | 854.5 hPa | 0 mm | - | 37 W/m² | - |
| 1787850700 | 25.56° C | 55% | 854.6 hPa | 0 mm | - | 51 W/m² | - |
| 1787850326 | 25.56° C | 54% | 854.6 hPa | 0 mm | - | 51 W/m² | - |
| 1787849727 | 25.56° C | 54% | 854.6 hPa | 0 mm | - | 81 W/m² | - |
| 1787848900 | 26.11° C | 52% | 854.6 hPa | 0 mm | - | 117 W/m² | - |
| 1787848527 | 26.11° C | 52% | 854.7 hPa | 0 mm | - | 147 W/m² | - |
| 1787847927 | 26.11° C | 52% | 854.7 hPa | 0 mm | - | 117 W/m² | - |
| 1787847100 | 26.67° C | 48% | 854.7 hPa | 0 mm | - | 154 W/m² | - |
| 1787846727 | 27.22° C | 48% | 854.7 hPa | 0 mm | - | 198 W/m² | - |
* Rain latest hour (hover to see other rain measurements)
** Current wind speed in m/s (hover to see current wind gust speed)